createdAt,value
2022-10-09T00:01:23.674Z,92.43
2022-10-09T00:06:30.766Z,91.89
2022-10-09T00:11:35.608Z,92.08
2022-10-09T00:16:39.118Z,92.41
2022-10-09T00:21:44.247Z,92.91
2022-10-09T00:26:49.174Z,93.04
2022-10-09T00:31:53.060Z,93.72
2022-10-09T00:36:57.833Z,94.74
2022-10-09T00:42:01.663Z,96.44
2022-10-09T00:47:05.478Z,96.59
2022-10-09T00:52:10.438Z,96.66
2022-10-09T00:57:14.215Z,97.22
2022-10-09T01:02:17.730Z,97.48
2022-10-09T01:07:31.285Z,96.98
2022-10-09T01:12:47.063Z,97.10
2022-10-09T01:17:58.463Z,97.61
2022-10-09T01:23:29.623Z,98.54
2022-10-09T01:28:36.766Z,99.16
2022-10-09T01:33:40.550Z,99.51
2022-10-09T01:38:46.111Z,99.51
2022-10-09T01:43:50.903Z,98.90
2022-10-09T01:49:01.844Z,100.00
2022-10-09T01:54:10.206Z,99.90
2022-10-09T01:59:18.802Z,100.00
2022-10-09T02:04:23.452Z,100.00
2022-10-09T02:09:26.986Z,100.00
2022-10-09T02:14:31.815Z,100.00
2022-10-09T02:19:41.103Z,100.00
2022-10-09T02:24:45.233Z,100.00
2022-10-09T02:29:50.999Z,100.00
2022-10-09T02:34:54.721Z,100.00
2022-10-09T02:39:58.200Z,100.00
2022-10-09T02:45:02.996Z,100.00
2022-10-09T02:50:07.606Z,100.00
2022-10-09T02:55:11.584Z,100.00
2022-10-09T03:00:16.975Z,100.00
2022-10-09T03:05:21.082Z,100.00
2022-10-09T03:10:24.706Z,100.00
2022-10-09T03:15:29.566Z,100.00
2022-10-09T03:20:33.423Z,100.00
2022-10-09T03:25:36.819Z,100.00
2022-10-09T03:30:43.252Z,100.00
2022-10-09T03:35:47.172Z,100.00
2022-10-09T03:40:50.977Z,100.00
2022-10-09T03:46:00.345Z,100.00
2022-10-09T03:51:04.804Z,100.00
2022-10-09T03:56:08.343Z,100.00
2022-10-09T04:01:13.379Z,100.00
2022-10-09T04:06:17.385Z,100.00
2022-10-09T04:11:20.801Z,100.00
2022-10-09T04:16:25.643Z,100.00
2022-10-09T04:21:29.767Z,100.00
2022-10-09T04:26:33.157Z,100.00
2022-10-09T04:31:37.968Z,100.00
2022-10-09T04:36:41.417Z,100.00
2022-10-09T04:41:44.766Z,100.00
2022-10-09T04:46:51.402Z,100.00
2022-10-09T04:51:54.841Z,100.00
2022-10-09T04:56:58.706Z,100.00
2022-10-09T05:02:03.829Z,100.00
2022-10-09T05:07:07.286Z,100.00
2022-10-09T05:12:10.590Z,100.00
2022-10-09T05:17:17.899Z,100.00
2022-10-09T05:22:23.090Z,100.00
2022-10-09T05:27:26.450Z,99.70
2022-10-09T05:32:31.270Z,99.99
2022-10-09T05:37:34.800Z,99.79
2022-10-09T05:42:38.180Z,98.49
2022-10-09T05:47:43.077Z,97.99
2022-10-09T05:52:46.652Z,98.08
2022-10-09T05:57:50.728Z,98.16
2022-10-09T06:02:55.632Z,97.34
2022-10-09T06:07:59.017Z,98.34
2022-10-09T06:13:04.727Z,96.68
2022-10-09T06:18:09.526Z,97.04
2022-10-09T06:23:12.895Z,95.70
2022-10-09T06:28:18.652Z,96.47
2022-10-09T06:33:23.451Z,95.70
2022-10-09T06:38:26.921Z,95.01
2022-10-09T06:43:30.449Z,93.36
2022-10-09T06:48:42.445Z,94.29
2022-10-09T06:53:50.071Z,94.58
2022-10-09T06:58:54.287Z,94.68
2022-10-09T07:04:04.567Z,92.81
2022-10-09T07:09:14.899Z,92.46
2022-10-09T07:14:18.824Z,94.71
2022-10-09T07:19:23.673Z,93.88
2022-10-09T07:24:27.205Z,86.70
2022-10-09T07:29:30.716Z,85.96
2022-10-09T07:34:35.563Z,89.03
2022-10-09T07:39:42.891Z,90.22
2022-10-09T07:44:48.580Z,90.56
2022-10-09T07:49:53.565Z,90.14
2022-10-09T07:54:57.396Z,88.29
2022-10-09T08:00:00.876Z,85.69
2022-10-09T08:05:06.466Z,84.93
2022-10-09T08:10:10.692Z,86.02
2022-10-09T08:15:14.322Z,83.22
2022-10-09T08:20:35.687Z,79.44
2022-10-09T08:25:39.289Z,73.17
2022-10-09T08:30:43.154Z,75.21
2022-10-09T08:35:48.278Z,73.08
2022-10-09T08:40:58.408Z,69.35
2022-10-09T08:46:04.697Z,65.28
2022-10-09T08:51:16.912Z,65.52
2022-10-09T08:56:20.444Z,65.74
2022-10-09T09:01:32.595Z,66.74
2022-10-09T09:06:45.481Z,65.36
2022-10-09T09:11:54.078Z,62.27
2022-10-09T09:17:03.831Z,61.30
2022-10-09T09:22:13.500Z,61.62
2022-10-09T09:27:20.363Z,60.14
2022-10-09T09:32:27.431Z,57.56
2022-10-09T09:37:32.243Z,59.49
2022-10-09T09:42:35.755Z,58.27
2022-10-09T09:47:44.301Z,59.41
2022-10-09T09:52:56.678Z,57.73
2022-10-09T09:58:02.995Z,56.53
2022-10-09T10:03:13.547Z,55.24
2022-10-09T10:08:26.739Z,56.42
2022-10-09T10:13:35.838Z,60.33
2022-10-09T10:18:42.209Z,58.94
2022-10-09T10:23:52.873Z,53.73
2022-10-09T10:29:01.850Z,54.40
2022-10-09T10:34:10.388Z,54.62
2022-10-09T10:39:25.328Z,55.10
2022-10-09T10:44:41.751Z,52.17
2022-10-09T10:49:45.350Z,54.39
2022-10-09T10:54:55.138Z,53.71
2022-10-09T11:00:06.441Z,52.60
2022-10-09T11:05:32.242Z,52.89
2022-10-09T11:10:47.713Z,51.29
2022-10-09T11:16:02.316Z,51.87
2022-10-09T11:21:15.240Z,50.74
2022-10-09T11:26:28.063Z,44.95
2022-10-09T11:31:35.527Z,45.24
2022-10-09T11:36:42.172Z,47.43
2022-10-09T11:41:49.537Z,45.94
2022-10-09T11:47:01.943Z,45.69
2022-10-09T11:52:16.932Z,43.97
2022-10-09T11:57:30.179Z,44.58
2022-10-09T12:02:34.007Z,44.39
2022-10-09T12:13:00.207Z,42.20
2022-10-09T12:18:17.134Z,42.11
2022-10-09T12:23:45.003Z,42.62
2022-10-09T12:28:53.036Z,41.87
2022-10-09T12:34:03.415Z,41.58
2022-10-09T12:39:16.773Z,40.97
2022-10-09T12:44:30.391Z,39.25
2022-10-09T12:49:34.052Z,40.84
2022-10-09T12:54:43.913Z,42.68
2022-10-09T12:59:50.673Z,43.63
2022-10-09T13:04:59.773Z,42.14
2022-10-09T13:10:10.473Z,41.97
2022-10-09T13:15:32.967Z,43.05
2022-10-09T13:20:36.956Z,41.23
2022-10-09T13:25:43.594Z,40.28
2022-10-09T13:30:48.470Z,39.86
2022-10-09T13:35:52.118Z,38.91
2022-10-09T13:40:55.695Z,39.30
2022-10-09T13:46:00.472Z,38.83
2022-10-09T13:51:05.484Z,37.80
2022-10-09T13:56:09.703Z,36.08
2022-10-09T14:01:14.782Z,35.56
2022-10-09T14:06:18.233Z,34.27
2022-10-09T14:11:22.123Z,34.54
2022-10-09T14:16:27.832Z,37.06
2022-10-09T14:21:32.023Z,37.14
2022-10-09T14:26:35.915Z,38.09
2022-10-09T14:32:00.607Z,39.65
2022-10-09T14:37:41.619Z,40.13
2022-10-09T14:43:18.791Z,41.14
2022-10-09T14:48:57.634Z,44.01
2022-10-09T14:54:34.715Z,43.85
2022-10-09T15:00:11.667Z,44.27
2022-10-09T15:05:50.620Z,44.06
2022-10-09T15:11:27.641Z,44.41
2022-10-09T15:17:04.601Z,44.66
2022-10-09T15:22:42.621Z,45.03
2022-10-09T15:28:20.668Z,45.14
2022-10-09T15:33:57.629Z,46.18
2022-10-09T15:39:36.641Z,46.95
2022-10-09T15:45:13.613Z,49.41
2022-10-09T15:50:52.644Z,51.49
2022-10-09T15:56:39.665Z,52.76
2022-10-09T16:02:16.606Z,55.65
2022-10-09T16:07:53.630Z,56.85
2022-10-09T16:13:32.619Z,58.13
2022-10-09T16:19:12.633Z,58.06
2022-10-09T16:24:50.620Z,59.01
2022-10-09T16:30:30.625Z,61.57
2022-10-09T16:36:07.624Z,61.76
2022-10-09T16:41:44.610Z,62.72
2022-10-09T16:47:22.610Z,65.39
2022-10-09T16:53:00.626Z,64.82
2022-10-09T16:58:37.625Z,67.49
2022-10-09T17:04:16.613Z,69.58
2022-10-09T17:09:54.655Z,71.04
2022-10-09T17:15:31.626Z,72.45
2022-10-09T17:21:09.593Z,72.48
2022-10-09T17:26:46.603Z,73.19
2022-10-09T17:32:23.609Z,73.63
2022-10-09T17:38:03.625Z,74.96
2022-10-09T17:43:40.615Z,75.91
2022-10-09T17:49:18.607Z,77.13
2022-10-09T17:54:56.609Z,76.88
2022-10-09T18:00:33.616Z,76.99
2022-10-09T18:06:10.601Z,76.98
2022-10-09T18:11:48.614Z,77.98
2022-10-09T18:17:25.595Z,77.75
2022-10-09T18:23:02.629Z,78.19
2022-10-09T18:28:43.559Z,78.32
2022-10-09T18:34:23.628Z,78.51
2022-10-09T18:40:00.592Z,80.43
2022-10-09T18:45:40.627Z,79.48
2022-10-09T18:51:19.591Z,80.13
2022-10-09T18:56:56.614Z,81.59
2022-10-09T19:08:14.625Z,82.75
2022-10-09T19:13:51.594Z,82.53
2022-10-09T19:19:29.601Z,83.74
2022-10-09T19:25:06.605Z,84.38
2022-10-09T19:30:43.572Z,84.90
2022-10-09T19:36:24.598Z,86.68
2022-10-09T19:42:02.613Z,86.77
2022-10-09T19:47:39.580Z,87.18
2022-10-09T19:53:17.580Z,86.47
2022-10-09T19:59:04.600Z,86.35
2022-10-09T20:04:41.601Z,87.01
2022-10-09T20:10:21.611Z,87.93
2022-10-09T20:15:58.587Z,88.28
2022-10-09T20:21:35.574Z,88.41
2022-10-09T20:27:20.570Z,89.04
2022-10-09T20:32:59.324Z,89.45
2022-10-09T20:38:36.589Z,89.82
2022-10-09T20:44:18.582Z,91.85
2022-10-09T20:49:55.582Z,92.20
2022-10-09T20:55:32.568Z,92.93
2022-10-09T21:01:11.603Z,93.19
2022-10-09T21:06:48.607Z,92.80
2022-10-09T21:12:25.570Z,92.61
2022-10-09T21:18:03.569Z,92.85
2022-10-09T21:23:40.570Z,92.53
2022-10-09T21:29:24.633Z,92.99
2022-10-09T21:35:03.593Z,93.49
2022-10-09T21:40:40.574Z,93.75
2022-10-09T21:46:17.581Z,93.72
2022-10-09T21:51:55.694Z,93.77
2022-10-09T21:57:32.568Z,94.02
2022-10-09T22:03:09.596Z,94.08
2022-10-09T22:08:48.562Z,93.47
2022-10-09T22:14:25.589Z,93.43
2022-10-09T22:20:02.543Z,94.13
2022-10-09T22:25:40.563Z,94.25
2022-10-09T22:31:20.553Z,94.44
2022-10-09T22:36:57.562Z,95.07
2022-10-09T22:42:35.555Z,95.00
2022-10-09T22:48:14.590Z,95.35
2022-10-09T22:53:52.561Z,95.54
2022-10-09T22:59:32.534Z,95.59
2022-10-09T23:05:09.546Z,95.14
2022-10-09T23:10:46.544Z,95.20
2022-10-09T23:16:26.545Z,95.20
2022-10-09T23:22:03.546Z,95.32
2022-10-09T23:27:40.540Z,95.98
2022-10-09T23:33:18.547Z,96.24
2022-10-09T23:38:55.521Z,96.92
2022-10-09T23:44:32.538Z,96.96
2022-10-09T23:50:10.529Z,97.26
2022-10-09T23:55:47.554Z,97.19
